createdAt,value
2022-12-11T10:09:26.609Z,-2.74
2022-12-11T10:15:18.788Z,-2.52
2022-12-11T10:21:09.453Z,-2.30
2022-12-11T10:27:09.429Z,-2.22
2022-12-11T10:32:52.808Z,-2.24
2022-12-11T10:38:37.876Z,-2.26
2022-12-11T10:51:58.981Z,-2.33
2022-12-11T10:58:19.920Z,-2.32
2022-12-11T11:05:20.726Z,-2.38
2022-12-11T11:12:37.246Z,-2.47
2022-12-11T11:26:23.697Z,-2.50
2022-12-11T12:05:05.968Z,-2.78
2022-12-11T13:01:22.590Z,-2.66
2022-12-11T13:21:54.763Z,-2.54
2022-12-11T13:41:27.718Z,-2.63
2022-12-11T13:48:16.810Z,-2.80
2022-12-11T13:55:08.585Z,-2.87
2022-12-11T14:07:50.142Z,-2.91
2022-12-11T14:14:24.420Z,-2.93
2022-12-11T14:21:10.741Z,-2.91
2022-12-11T14:28:10.428Z,-3.00
2022-12-11T14:34:37.120Z,-3.09
2022-12-11T14:41:02.328Z,-3.26
2022-12-11T14:47:24.547Z,-3.37
2022-12-11T14:53:47.997Z,-3.49
2022-12-11T15:00:18.092Z,-3.53
2022-12-11T15:56:42.840Z,-3.35
2022-12-11T16:03:27.723Z,-3.28
2022-12-11T16:10:10.834Z,-3.20
2022-12-11T16:16:54.214Z,-3.03
2022-12-11T16:23:39.607Z,-3.09
2022-12-11T16:37:38.876Z,-3.16
2022-12-11T16:40:14.294Z,-3.15
2022-12-11T16:44:40.992Z,-3.35
2022-12-11T16:51:29.571Z,-3.25
2022-12-11T17:00:41.554Z,-3.25
2022-12-11T17:12:55.819Z,-3.18
2022-12-11T17:19:39.309Z,-3.29
2022-12-11T17:26:22.788Z,-3.41
2022-12-11T17:32:37.496Z,-3.48
2022-12-11T18:17:18.195Z,-3.60
2022-12-11T19:48:01.602Z,-3.52
2022-12-11T20:14:25.371Z,-3.77
2022-12-11T20:21:19.345Z,-3.80
2022-12-11T20:28:03.054Z,-3.83
2022-12-11T21:23:34.970Z,-3.31
2022-12-11T21:51:13.810Z,4.05
2022-12-11T21:58:02.664Z,2.55
2022-12-11T22:10:19.821Z,-0.04
2022-12-11T22:23:53.014Z,-1.59
2022-12-11T22:30:34.052Z,-2.09
2022-12-11T22:37:17.043Z,-2.36
2022-12-11T22:44:01.150Z,-2.42
2022-12-11T22:50:47.232Z,-2.51
2022-12-11T22:57:33.069Z,-2.69
2022-12-11T23:04:16.112Z,-2.83
2022-12-11T23:10:58.959Z,-2.76
2022-12-11T23:17:41.901Z,-2.91
2022-12-11T23:24:25.363Z,-2.98
2022-12-11T23:31:08.689Z,-2.90
2022-12-11T23:37:51.920Z,-2.97
2022-12-11T23:44:35.782Z,-3.13
2022-12-11T23:51:18.582Z,-3.14
2022-12-11T23:58:02.063Z,-3.21
